createdAt,value
2023-07-10T00:01:25.791Z,2.60
2023-07-10T00:03:57.464Z,2.27
2023-07-10T00:06:29.317Z,2.38
2023-07-10T00:09:00.817Z,2.55
2023-07-10T00:11:32.627Z,2.90
2023-07-10T00:14:04.168Z,2.55
2023-07-10T00:16:35.708Z,2.42
2023-07-10T00:19:07.211Z,2.20
2023-07-10T00:21:38.725Z,2.40
2023-07-10T00:24:10.607Z,2.42
2023-07-10T00:26:42.122Z,2.50
2023-07-10T00:29:13.930Z,2.03
2023-07-10T00:31:45.406Z,2.22
2023-07-10T00:34:17.221Z,2.50
2023-07-10T00:36:48.716Z,2.60
2023-07-10T00:39:20.508Z,2.78
2023-07-10T00:41:52.007Z,2.10
2023-07-10T00:44:23.782Z,2.42
2023-07-10T00:46:55.348Z,2.40
2023-07-10T00:49:26.887Z,2.90
2023-07-10T00:51:58.362Z,2.42
2023-07-10T00:54:30.175Z,2.13
2023-07-10T00:57:02.021Z,3.13
2023-07-10T00:59:33.981Z,2.55
2023-07-10T01:02:05.932Z,2.80
2023-07-10T01:04:37.461Z,2.53
2023-07-10T01:07:09.276Z,3.10
2023-07-10T01:09:40.786Z,2.05
2023-07-10T01:12:12.622Z,2.30
2023-07-10T01:14:44.114Z,2.83
2023-07-10T01:17:15.913Z,2.38
2023-07-10T01:19:47.393Z,2.03
2023-07-10T01:22:19.070Z,1.90
2023-07-10T01:24:50.596Z,1.80
2023-07-10T01:27:22.408Z,2.28
2023-07-10T01:29:53.950Z,1.90
2023-07-10T01:32:26.451Z,2.08
2023-07-10T01:34:58.007Z,1.55
2023-07-10T01:37:29.507Z,2.63
2023-07-10T01:40:01.411Z,1.90
2023-07-10T01:42:32.921Z,2.40
2023-07-10T01:45:04.704Z,2.20
2023-07-10T01:47:36.291Z,2.03
2023-07-10T01:50:08.123Z,2.20
2023-07-10T01:52:39.613Z,2.28
2023-07-10T01:55:11.266Z,1.95
2023-07-10T01:57:42.755Z,2.35
2023-07-10T02:00:14.571Z,2.50
2023-07-10T02:02:46.142Z,2.22
2023-07-10T02:05:18.010Z,2.47
2023-07-10T02:07:49.538Z,2.42
2023-07-10T02:10:26.473Z,2.08
2023-07-10T02:13:04.162Z,2.75
2023-07-10T02:15:36.124Z,2.17
2023-07-10T02:18:08.019Z,2.30
2023-07-10T02:20:39.545Z,2.83
2023-07-10T02:23:11.275Z,2.25
2023-07-10T02:25:43.188Z,2.45
2023-07-10T02:28:15.430Z,2.50
2023-07-10T02:30:46.922Z,2.20
2023-07-10T02:33:18.734Z,3.17
2023-07-10T02:35:50.239Z,2.42
2023-07-10T02:38:21.735Z,2.45
2023-07-10T02:40:53.218Z,3.15
2023-07-10T02:43:24.717Z,2.38
2023-07-10T02:45:56.241Z,2.20
2023-07-10T02:48:28.060Z,2.40
2023-07-10T02:50:59.754Z,3.30
2023-07-10T02:53:31.617Z,2.90
2023-07-10T02:56:03.519Z,2.58
2023-07-10T02:58:35.269Z,2.67
2023-07-10T03:01:07.335Z,2.70
2023-07-10T03:03:38.851Z,3.20
2023-07-10T03:06:10.909Z,2.97
2023-07-10T03:08:42.404Z,2.30
2023-07-10T03:11:14.231Z,2.05
2023-07-10T03:13:45.768Z,2.10
2023-07-10T03:16:17.550Z,2.00
2023-07-10T03:18:49.123Z,1.85
2023-07-10T03:21:20.944Z,2.00
2023-07-10T03:23:52.445Z,2.15
2023-07-10T03:26:24.446Z,2.47
2023-07-10T03:28:55.948Z,2.20
2023-07-10T03:31:27.750Z,2.10
2023-07-10T03:33:59.235Z,2.10
2023-07-10T03:36:31.078Z,1.90
2023-07-10T03:39:02.592Z,2.20
2023-07-10T03:41:34.547Z,2.20
2023-07-10T03:44:06.144Z,2.17
2023-07-10T03:46:37.742Z,1.90
2023-07-10T03:49:09.282Z,2.22
2023-07-10T03:51:41.074Z,1.92
2023-07-10T03:54:12.573Z,1.92
2023-07-10T03:56:44.093Z,1.70
2023-07-10T03:59:15.581Z,2.08
2023-07-10T04:01:47.342Z,1.95
2023-07-10T04:04:19.036Z,1.90
2023-07-10T04:06:52.543Z,1.67
2023-07-10T04:09:24.293Z,1.90
2023-07-10T04:11:56.099Z,1.90
2023-07-10T04:14:27.618Z,2.40
2023-07-10T04:16:59.524Z,1.80
2023-07-10T04:19:31.035Z,1.88
2023-07-10T04:22:02.818Z,1.63
2023-07-10T04:24:36.477Z,1.92
2023-07-10T04:27:08.626Z,1.67
2023-07-10T04:29:40.121Z,1.90
2023-07-10T04:32:11.867Z,2.03
2023-07-10T04:34:43.364Z,2.22
2023-07-10T04:37:15.121Z,1.85
2023-07-10T04:39:46.604Z,2.25
2023-07-10T04:42:18.435Z,1.90
2023-07-10T04:44:49.941Z,1.85
2023-07-10T04:47:21.529Z,1.98
2023-07-10T04:49:53.078Z,2.00
2023-07-10T04:52:24.862Z,1.90
2023-07-10T04:54:56.370Z,1.90
2023-07-10T04:57:28.194Z,1.77
2023-07-10T04:59:59.690Z,2.67
2023-07-10T05:02:31.681Z,1.95
2023-07-10T05:05:03.374Z,2.45
2023-07-10T05:07:35.243Z,1.90
2023-07-10T05:10:06.739Z,2.27
2023-07-10T05:12:38.313Z,2.08
2023-07-10T05:15:09.798Z,2.20
2023-07-10T05:17:41.566Z,2.20
2023-07-10T05:20:13.108Z,2.20
2023-07-10T05:22:44.922Z,2.10
2023-07-10T05:25:16.430Z,2.03
2023-07-10T05:27:48.348Z,2.40
2023-07-10T05:30:19.839Z,2.27
2023-07-10T05:32:51.634Z,2.10
2023-07-10T05:35:23.113Z,2.22
2023-07-10T05:37:55.019Z,2.15
2023-07-10T05:40:26.502Z,2.10
2023-07-10T05:42:58.269Z,2.00
2023-07-10T05:45:29.790Z,1.92
2023-07-10T05:48:01.866Z,1.85
2023-07-10T05:50:33.392Z,1.90
2023-07-10T05:53:05.436Z,2.10
2023-07-10T05:55:36.945Z,2.63
2023-07-10T05:58:08.903Z,1.95
2023-07-10T06:00:40.400Z,2.85
2023-07-10T06:03:13.520Z,1.80
2023-07-10T06:05:45.015Z,2.20
2023-07-10T06:08:16.887Z,2.42
2023-07-10T06:10:48.373Z,2.45
2023-07-10T06:13:20.316Z,2.00
2023-07-10T06:15:51.881Z,2.08
2023-07-10T06:18:23.569Z,2.47
2023-07-10T06:20:55.051Z,2.13
2023-07-10T06:23:26.818Z,2.00
2023-07-10T06:25:58.329Z,2.47
2023-07-10T06:28:30.122Z,2.47
2023-07-10T06:31:01.732Z,3.28
2023-07-10T06:33:33.639Z,2.13
2023-07-10T06:36:05.339Z,2.42
2023-07-10T06:38:37.371Z,2.80
2023-07-10T06:41:09.008Z,2.63
2023-07-10T06:43:40.833Z,2.50
2023-07-10T06:46:12.372Z,2.65
2023-07-10T06:48:44.177Z,2.95
2023-07-10T06:51:15.682Z,2.45
2023-07-10T06:53:47.455Z,2.33
2023-07-10T06:56:18.979Z,2.38
2023-07-10T06:58:50.764Z,3.03
2023-07-10T07:01:22.355Z,2.88
2023-07-10T07:03:54.140Z,2.55
2023-07-10T07:06:25.739Z,2.83
2023-07-10T07:08:57.444Z,2.90
2023-07-10T07:11:28.959Z,2.67
2023-07-10T07:14:00.836Z,2.92
2023-07-10T07:16:32.400Z,2.87
2023-07-10T07:19:11.674Z,3.05
2023-07-10T07:21:44.154Z,2.80
2023-07-10T07:24:15.938Z,2.55
2023-07-10T07:26:47.478Z,3.10
2023-07-10T07:29:19.725Z,2.50
2023-07-10T07:31:51.217Z,2.80
2023-07-10T07:34:22.730Z,2.90
2023-07-10T07:36:54.224Z,3.28
2023-07-10T07:39:26.140Z,2.88
2023-07-10T07:41:57.651Z,3.13
2023-07-10T07:44:29.488Z,2.80
2023-07-10T07:47:01.083Z,2.83
2023-07-10T07:49:32.620Z,3.08
2023-07-10T07:52:04.144Z,2.90
2023-07-10T07:54:35.843Z,3.10
2023-07-10T07:57:07.337Z,3.13
2023-07-10T07:59:38.856Z,3.40
2023-07-10T08:02:10.391Z,2.75
2023-07-10T08:04:44.367Z,3.05
2023-07-10T08:07:15.942Z,3.17
2023-07-10T08:09:47.726Z,3.38
2023-07-10T08:12:19.225Z,3.03
2023-07-10T08:14:51.125Z,2.92
2023-07-10T08:17:22.661Z,3.22
2023-07-10T08:19:54.811Z,3.13
2023-07-10T08:22:26.347Z,3.20
2023-07-10T08:24:58.297Z,2.97
2023-07-10T08:27:30.127Z,3.10
2023-07-10T08:30:01.977Z,3.58
2023-07-10T08:32:33.741Z,3.38
2023-07-10T08:35:05.261Z,3.20
2023-07-10T08:37:37.213Z,3.30
2023-07-10T08:40:08.750Z,3.55
2023-07-10T08:42:40.251Z,3.65
2023-07-10T08:45:11.753Z,3.30
2023-07-10T08:47:43.561Z,3.13
2023-07-10T08:50:15.094Z,3.60
2023-07-10T08:52:46.624Z,3.65
2023-07-10T08:55:18.309Z,3.28
2023-07-10T08:57:50.279Z,3.13
2023-07-10T09:00:22.264Z,3.58
2023-07-10T09:02:53.787Z,3.80
2023-07-10T09:05:25.650Z,3.57
2023-07-10T09:07:57.151Z,3.80
2023-07-10T09:10:29.013Z,3.63
2023-07-10T09:13:00.541Z,4.10
2023-07-10T09:15:34.088Z,3.70
2023-07-10T09:18:07.458Z,3.28
2023-07-10T09:20:38.996Z,3.77
2023-07-10T09:23:10.749Z,3.80
2023-07-10T09:25:42.266Z,3.97
2023-07-10T09:28:13.810Z,3.80
2023-07-10T09:30:45.307Z,3.33
2023-07-10T09:33:17.205Z,4.50
2023-07-10T09:35:48.731Z,3.83
2023-07-10T09:38:20.542Z,3.37
2023-07-10T09:40:52.129Z,3.65
2023-07-10T09:43:24.082Z,3.85
2023-07-10T09:45:55.660Z,3.80
2023-07-10T09:48:27.596Z,3.93
2023-07-10T09:50:59.480Z,3.95
2023-07-10T09:53:31.216Z,3.83
2023-07-10T09:56:03.416Z,3.80
2023-07-10T09:58:35.111Z,3.78
2023-07-10T10:01:06.956Z,4.90
2023-07-10T10:03:38.488Z,4.10
2023-07-10T10:06:10.469Z,3.83
2023-07-10T10:08:42.004Z,4.47
2023-07-10T10:11:13.998Z,4.13
2023-07-10T10:13:45.526Z,3.85
2023-07-10T10:16:17.465Z,3.85
2023-07-10T10:18:49.342Z,3.58
2023-07-10T10:21:20.938Z,3.47
2023-07-10T10:23:52.798Z,3.65
2023-07-10T10:26:24.314Z,3.38
2023-07-10T10:28:56.171Z,2.90
2023-07-10T10:31:27.774Z,2.85
2023-07-10T10:33:59.528Z,3.42
2023-07-10T10:36:31.023Z,3.03
2023-07-10T10:39:02.910Z,2.90
2023-07-10T10:41:34.418Z,2.92
2023-07-10T10:44:06.172Z,2.60
2023-07-10T10:46:37.722Z,3.15
2023-07-10T10:49:09.282Z,3.15
2023-07-10T10:51:40.795Z,3.72
2023-07-10T10:54:19.791Z,2.88
2023-07-10T10:56:59.409Z,3.45
2023-07-10T10:59:30.921Z,4.03
2023-07-10T11:02:02.782Z,3.80
2023-07-10T11:04:34.284Z,3.90
2023-07-10T11:07:06.140Z,3.72
2023-07-10T11:09:37.697Z,3.95
2023-07-10T11:12:09.600Z,4.13
2023-07-10T11:14:41.098Z,4.57
2023-07-10T11:17:12.601Z,4.20
2023-07-10T11:19:44.110Z,3.97
2023-07-10T11:22:16.107Z,4.10
2023-07-10T11:24:47.594Z,4.22
2023-07-10T11:27:19.272Z,4.23
2023-07-10T11:29:50.754Z,4.65
2023-07-10T11:32:22.727Z,4.53
2023-07-10T11:34:58.875Z,4.30
2023-07-10T11:37:38.733Z,4.78
2023-07-10T11:40:10.759Z,4.57
2023-07-10T11:42:42.331Z,4.90
2023-07-10T11:45:14.255Z,5.03
2023-07-10T11:47:45.808Z,5.15
2023-07-10T11:50:17.685Z,5.20
2023-07-10T11:52:49.204Z,4.75
2023-07-10T11:55:20.727Z,4.65
2023-07-10T11:57:52.211Z,4.80
2023-07-10T12:00:23.894Z,4.22
2023-07-10T12:02:56.047Z,4.03
2023-07-10T12:08:01.800Z,3.80
2023-07-10T12:10:34.665Z,3.83
2023-07-10T12:13:06.552Z,4.18
2023-07-10T12:15:38.045Z,4.53
2023-07-10T12:18:09.659Z,4.63
2023-07-10T12:20:41.211Z,4.63
2023-07-10T12:23:13.340Z,4.50
2023-07-10T12:25:44.840Z,4.60
2023-07-10T12:30:51.299Z,4.13
2023-07-10T12:33:23.086Z,4.15
2023-07-10T12:35:54.901Z,4.00
2023-07-10T12:38:26.458Z,4.88
2023-07-10T12:40:58.317Z,4.03
2023-07-10T12:43:29.856Z,4.45
2023-07-10T12:46:01.768Z,3.50
2023-07-10T12:48:33.379Z,4.30
2023-07-10T12:51:05.288Z,4.15
2023-07-10T12:53:36.800Z,3.58
2023-07-10T12:56:10.193Z,3.78
2023-07-10T12:58:42.023Z,4.07
2023-07-10T13:01:13.814Z,3.97
2023-07-10T13:03:45.742Z,4.05
2023-07-10T13:06:17.326Z,3.80
2023-07-10T13:08:49.162Z,3.83
2023-07-10T13:11:28.542Z,4.07
2023-07-10T13:14:14.581Z,3.63
2023-07-10T13:16:46.891Z,3.03
2023-07-10T13:19:18.592Z,3.42
2023-07-10T13:21:50.115Z,3.47
2023-07-10T13:24:21.925Z,3.57
2023-07-10T13:26:53.447Z,3.67
2023-07-10T13:29:25.328Z,3.70
2023-07-10T13:31:56.946Z,3.50
2023-07-10T13:34:28.542Z,3.95
2023-07-10T13:37:00.403Z,4.30
2023-07-10T13:39:31.906Z,3.95
2023-07-10T13:42:03.752Z,4.00
2023-07-10T13:44:35.230Z,4.10
2023-07-10T13:47:07.068Z,4.00
2023-07-10T13:49:38.565Z,3.95
2023-07-10T13:52:10.352Z,4.13
2023-07-10T13:54:41.905Z,4.22
2023-07-10T13:57:13.727Z,4.30
2023-07-10T13:59:45.541Z,3.63
2023-07-10T14:02:17.351Z,4.32
2023-07-10T14:04:49.213Z,3.75
2023-07-10T14:07:20.700Z,3.80
2023-07-10T14:09:52.674Z,3.22
2023-07-10T14:12:24.531Z,3.08
2023-07-10T14:14:57.313Z,3.85
2023-07-10T14:17:28.844Z,3.72
2023-07-10T14:20:00.734Z,3.50
2023-07-10T14:22:32.220Z,3.97
2023-07-10T14:25:04.112Z,3.47
2023-07-10T14:27:36.080Z,3.78
2023-07-10T14:30:07.919Z,3.20
2023-07-10T14:32:39.488Z,2.65
2023-07-10T14:35:11.006Z,2.90
2023-07-10T14:37:42.588Z,2.92
2023-07-10T14:40:14.095Z,2.35
2023-07-10T14:42:45.608Z,2.60
2023-07-10T14:45:17.125Z,2.87
2023-07-10T14:47:48.999Z,2.90
2023-07-10T14:50:20.505Z,2.70
2023-07-10T14:52:52.011Z,2.55
2023-07-10T14:55:23.810Z,2.45
2023-07-10T14:57:55.323Z,2.78
2023-07-10T15:00:27.151Z,2.77
2023-07-10T15:02:58.700Z,2.50
2023-07-10T15:05:30.481Z,2.22
2023-07-10T15:08:01.973Z,1.98
2023-07-10T15:10:33.747Z,2.30
2023-07-10T15:13:05.228Z,2.35
2023-07-10T15:15:37.012Z,1.70
2023-07-10T15:18:08.537Z,1.90
2023-07-10T15:20:40.115Z,1.70
2023-07-10T15:23:11.631Z,2.03
2023-07-10T15:25:43.161Z,1.95
2023-07-10T15:28:15.009Z,2.10
2023-07-10T15:30:46.515Z,2.13
2023-07-10T15:33:18.286Z,1.65
2023-07-10T15:35:49.764Z,2.22
2023-07-10T15:38:21.518Z,1.95
2023-07-10T15:40:53.054Z,1.90
2023-07-10T15:43:25.478Z,1.80
2023-07-10T15:45:57.009Z,1.90
2023-07-10T15:48:29.035Z,1.90
2023-07-10T15:51:00.575Z,2.03
2023-07-10T15:53:32.441Z,2.10
2023-07-10T15:56:04.268Z,1.77
2023-07-10T15:58:36.138Z,2.10
2023-07-10T16:01:08.166Z,1.90
2023-07-10T16:03:39.939Z,1.83
2023-07-10T16:06:11.777Z,1.83
2023-07-10T16:08:43.276Z,1.90
2023-07-10T16:11:14.961Z,2.17
2023-07-10T16:13:46.641Z,1.70
2023-07-10T16:16:18.736Z,1.63
2023-07-10T16:18:53.306Z,1.70
2023-07-10T16:21:25.141Z,1.73
2023-07-10T16:23:56.632Z,2.20
2023-07-10T16:26:28.535Z,2.08
2023-07-10T16:29:00.213Z,1.70
2023-07-10T16:31:31.754Z,1.73
2023-07-10T16:34:03.874Z,1.70
2023-07-10T16:36:35.395Z,1.80
2023-07-10T16:39:07.276Z,1.50
2023-07-10T16:41:38.837Z,1.75
2023-07-10T16:44:10.734Z,1.95
2023-07-10T16:46:42.319Z,1.50
2023-07-10T16:49:13.881Z,1.63
2023-07-10T16:51:45.552Z,1.60
2023-07-10T16:54:17.461Z,1.70
2023-07-10T16:56:49.173Z,1.60
2023-07-10T16:59:20.673Z,1.90
2023-07-10T17:01:52.593Z,1.48
2023-07-10T17:04:24.112Z,1.30
2023-07-10T17:06:55.612Z,1.30
2023-07-10T17:09:27.099Z,1.70
2023-07-10T17:11:58.921Z,1.80
2023-07-10T17:14:30.450Z,1.40
2023-07-10T17:17:02.335Z,1.42
2023-07-10T17:19:33.922Z,1.15
2023-07-10T17:22:05.559Z,1.48
2023-07-10T17:24:37.214Z,1.45
2023-07-10T17:27:09.027Z,1.13
2023-07-10T17:29:40.529Z,1.20
2023-07-10T17:32:13.136Z,1.83
2023-07-10T17:34:44.737Z,1.30
2023-07-10T17:37:16.379Z,1.40
2023-07-10T17:39:48.358Z,1.60
2023-07-10T17:42:19.860Z,1.30
2023-07-10T17:44:51.587Z,1.40
2023-07-10T17:47:23.128Z,1.67
2023-07-10T17:49:55.291Z,1.30
2023-07-10T17:52:26.894Z,1.65
2023-07-10T17:54:58.835Z,1.05
2023-07-10T17:57:30.699Z,1.83
2023-07-10T18:00:02.227Z,1.37
2023-07-10T18:02:36.662Z,1.45
2023-07-10T18:05:08.309Z,1.40
2023-07-10T18:07:39.866Z,1.35
2023-07-10T18:10:11.378Z,1.67
2023-07-10T18:12:42.883Z,1.33
2023-07-10T18:15:14.387Z,1.77
2023-07-10T18:17:46.042Z,1.35
2023-07-10T18:20:17.659Z,1.30
2023-07-10T18:22:49.188Z,1.30
2023-07-10T18:25:21.062Z,1.45
2023-07-10T18:27:52.574Z,1.00
2023-07-10T18:30:24.286Z,1.00
2023-07-10T18:32:55.801Z,1.53
2023-07-10T18:35:27.775Z,0.80
2023-07-10T18:37:59.273Z,0.90
2023-07-10T18:40:31.130Z,1.00
2023-07-10T18:43:02.661Z,1.10
2023-07-10T18:45:34.515Z,1.00
2023-07-10T18:48:06.069Z,1.20
2023-07-10T18:50:37.597Z,1.40
2023-07-10T18:53:09.099Z,1.35
2023-07-10T18:55:40.685Z,1.30
2023-07-10T18:58:12.375Z,0.70
2023-07-10T19:00:43.906Z,1.13
2023-07-10T19:03:15.836Z,1.10
2023-07-10T19:05:47.366Z,1.13
2023-07-10T19:08:18.887Z,1.25
2023-07-10T19:10:50.368Z,0.93
2023-07-10T19:13:22.238Z,0.93
2023-07-10T19:15:53.769Z,1.00
2023-07-10T19:18:25.496Z,1.00
2023-07-10T19:20:57.363Z,0.95
2023-07-10T19:23:28.965Z,0.97
2023-07-10T19:26:00.493Z,1.00
2023-07-10T19:28:32.583Z,1.10
2023-07-10T19:31:04.825Z,1.50
2023-07-10T19:33:36.970Z,0.80
2023-07-10T19:36:08.807Z,0.90
2023-07-10T19:38:40.288Z,0.87
2023-07-10T19:41:11.945Z,0.80
2023-07-10T19:43:43.461Z,1.00
2023-07-10T19:46:15.344Z,1.00
2023-07-10T19:48:46.875Z,1.43
2023-07-10T19:51:18.877Z,1.13
2023-07-10T19:53:50.411Z,1.30
2023-07-10T19:56:22.275Z,1.08
2023-07-10T19:58:53.786Z,1.10
2023-07-10T20:01:25.741Z,0.90
2023-07-10T20:03:57.278Z,1.20
2023-07-10T20:06:29.194Z,1.60
2023-07-10T20:09:00.953Z,1.10
2023-07-10T20:11:32.459Z,1.13
2023-07-10T20:14:04.367Z,1.20
2023-07-10T20:16:36.079Z,0.77
2023-07-10T20:19:08.219Z,1.17
2023-07-10T20:21:39.747Z,1.30
2023-07-10T20:24:11.587Z,0.95
2023-07-10T20:26:43.068Z,1.55
2023-07-10T20:29:14.736Z,1.05
2023-07-10T20:31:46.209Z,1.05
2023-07-10T20:34:18.147Z,1.25
2023-07-10T20:36:49.693Z,0.83
2023-07-10T20:39:21.197Z,1.30
2023-07-10T20:41:55.662Z,1.30
2023-07-10T20:44:27.148Z,1.10
2023-07-10T20:46:59.027Z,1.27
2023-07-10T20:49:30.734Z,1.33
2023-07-10T20:52:05.192Z,1.17
2023-07-10T20:54:36.687Z,0.80
2023-07-10T20:57:08.386Z,1.02
2023-07-10T20:59:39.921Z,1.20
2023-07-10T21:02:11.783Z,0.70
2023-07-10T21:04:43.357Z,0.80
2023-07-10T21:07:14.849Z,1.30
2023-07-10T21:09:47.823Z,0.90
2023-07-10T21:12:19.472Z,1.35
2023-07-10T21:14:51.185Z,1.20
2023-07-10T21:17:22.687Z,0.90
2023-07-10T21:19:54.308Z,1.13
2023-07-10T21:22:25.801Z,1.23
2023-07-10T21:24:57.533Z,1.23
2023-07-10T21:27:29.377Z,0.90
2023-07-10T21:30:01.474Z,1.13
2023-07-10T21:32:33.415Z,1.20
2023-07-10T21:35:05.052Z,1.10
2023-07-10T21:37:36.923Z,0.80
2023-07-10T21:40:08.432Z,1.20
2023-07-10T21:42:39.937Z,1.10
2023-07-10T21:45:11.445Z,0.90
2023-07-10T21:47:42.975Z,0.93
2023-07-10T21:50:14.500Z,1.10
2023-07-10T21:52:46.000Z,1.00
2023-07-10T21:55:17.613Z,1.05
2023-07-10T21:57:49.108Z,1.10
2023-07-10T22:00:21.069Z,1.40
2023-07-10T22:02:52.670Z,1.10
2023-07-10T22:05:24.729Z,1.10
2023-07-10T22:07:56.223Z,1.30
2023-07-10T22:10:28.078Z,1.20
2023-07-10T22:12:59.584Z,1.50
2023-07-10T22:15:31.359Z,1.40
2023-07-10T22:18:02.864Z,0.98
2023-07-10T22:20:34.724Z,1.25
2023-07-10T22:23:06.568Z,1.38
2023-07-10T22:25:38.079Z,1.85
2023-07-10T22:28:09.774Z,1.58
2023-07-10T22:30:41.279Z,1.58
2023-07-10T22:33:12.951Z,1.45
2023-07-10T22:35:44.484Z,1.30
2023-07-10T22:38:16.341Z,1.50
2023-07-10T22:40:47.827Z,1.50
2023-07-10T22:43:19.721Z,1.17
2023-07-10T22:45:51.258Z,1.80
2023-07-10T22:48:22.773Z,1.35
2023-07-10T22:50:54.280Z,1.50
2023-07-10T22:53:26.201Z,1.50
2023-07-10T22:55:58.010Z,1.33
2023-07-10T22:58:30.076Z,1.42
2023-07-10T23:01:01.975Z,1.80
2023-07-10T23:03:33.588Z,1.80
2023-07-10T23:06:05.523Z,1.50
2023-07-10T23:08:37.184Z,1.60
2023-07-10T23:11:09.008Z,1.55
2023-07-10T23:13:40.570Z,1.45
2023-07-10T23:16:12.436Z,1.50
2023-07-10T23:18:44.000Z,1.60
2023-07-10T23:21:16.003Z,1.38
2023-07-10T23:23:47.523Z,1.60
2023-07-10T23:26:19.389Z,1.38
2023-07-10T23:28:51.332Z,1.77
2023-07-10T23:31:22.907Z,1.70
2023-07-10T23:33:54.870Z,1.58
2023-07-10T23:36:26.412Z,1.52
2023-07-10T23:38:58.293Z,1.67
2023-07-10T23:41:29.829Z,1.42
2023-07-10T23:44:01.720Z,1.75
2023-07-10T23:46:33.234Z,1.40
2023-07-10T23:49:05.250Z,1.42
2023-07-10T23:51:36.762Z,1.63
2023-07-10T23:54:08.654Z,1.63
2023-07-10T23:56:40.167Z,1.60
2023-07-10T23:59:11.655Z,1.63
